Time;durP1;ratioP1;P1;durP2;ratioP2;P2;SDS_P1;SDS_P2;PMS_P1;PMS_P2;Temp;Humidity;BMP_temperature;BMP_pressure;BME280_temperature;BME280_humidity;BME280_pressure;Samples;Min_cycle;Max_cycle;Signal;HPM_P1;HPM_P2
2022/05/08 00:00:24;;;;;;;4.95;3.30;;;;;;;;;;5061444;28;20029;-50
2022/05/08 00:02:54;;;;;;;6.57;3.42;;;;;;;;;;5068144;28;20036;-53
2022/05/08 00:05:20;;;;;;;5.63;3.55;;;;;;;;;;5065141;28;20040;-55
2022/05/08 00:07:46;;;;;;;4.28;2.88;;;;;;;;;;5054533;28;20705;-54
2022/05/08 00:10:12;;;;;;;5.53;3.35;;;;;;;;;;5066334;28;20483;-52
2022/05/08 00:12:38;;;;;;;7.07;3.60;;;;;;;;;;5064071;28;20032;-56
2022/05/08 00:15:04;;;;;;;7.47;3.35;;;;;;;;;;5054101;28;20104;-52
2022/05/08 00:17:34;;;;;;;4.50;3.00;;;;;;;;;;5055785;28;20134;-49
2022/05/08 00:20:00;;;;;;;5.88;3.45;;;;;;;;;;5046830;28;20165;-54
2022/05/08 00:22:26;;;;;;;6.45;3.50;;;;;;;;;;5059385;28;20121;-53
2022/05/08 00:24:52;;;;;;;7.60;3.45;;;;;;;;;;5058360;28;20029;-51
2022/05/08 00:27:19;;;;;;;7.63;3.13;;;;;;;;;;5064414;28;20480;-53
2022/05/08 00:29:45;;;;;;;5.97;3.17;;;;;;;;;;5066982;28;20024;-51
2022/05/08 00:32:11;;;;;;;7.45;2.90;;;;;;;;;;5053901;28;20021;-54
2022/05/08 00:34:36;;;;;;;5.30;3.22;;;;;;;;;;5062688;28;20867;-52
2022/05/08 00:37:03;;;;;;;6.47;3.60;;;;;;;;;;5057650;28;20071;-52
2022/05/08 00:39:29;;;;;;;4.82;2.70;;;;;;;;;;5072542;28;20085;-52
2022/05/08 00:41:55;;;;;;;4.20;3.05;;;;;;;;;;5077863;28;20024;-52
2022/05/08 00:44:21;;;;;;;5.20;3.10;;;;;;;;;;5069346;28;20119;-54
2022/05/08 00:46:48;;;;;;;4.70;3.20;;;;;;;;;;5061062;28;20028;-53
2022/05/08 00:49:15;;;;;;;6.28;3.30;;;;;;;;;;5055026;28;20373;-53
2022/05/08 00:51:43;;;;;;;4.72;2.97;;;;;;;;;;5053219;28;20497;-54
2022/05/08 00:54:10;;;;;;;4.40;3.03;;;;;;;;;;5068508;28;20433;-55
2022/05/08 00:56:36;;;;;;;6.45;3.13;;;;;;;;;;5056338;28;20776;-54
2022/05/08 00:59:02;;;;;;;4.55;2.65;;;;;;;;;;5062150;28;20419;-52
2022/05/08 01:01:28;;;;;;;3.80;2.53;;;;;;;;;;5064049;28;20024;-54
2022/05/08 01:03:55;;;;;;;5.07;2.38;;;;;;;;;;5070020;28;20384;-52
2022/05/08 01:06:21;;;;;;;3.55;2.63;;;;;;;;;;5058105;28;20028;-52
2022/05/08 01:08:51;;;;;;;2.58;1.77;;;;;;;;;;5059420;28;20032;-55
2022/05/08 01:11:17;;;;;;;3.15;2.20;;;;;;;;;;5062145;28;20143;-55
2022/05/08 01:13:44;;;;;;;3.95;2.45;;;;;;;;;;5060899;28;20068;-54
2022/05/08 01:16:11;;;;;;;2.53;1.80;;;;;;;;;;5060076;28;20025;-53
2022/05/08 01:18:38;;;;;;;2.85;1.80;;;;;;;;;;5054806;28;20033;-51
2022/05/08 01:21:04;;;;;;;2.72;1.52;;;;;;;;;;5056736;28;20533;-54
2022/05/08 01:23:30;;;;;;;3.20;1.40;;;;;;;;;;5067741;28;20059;-52
2022/05/08 01:25:57;;;;;;;1.95;1.23;;;;;;;;;;5064511;28;20391;-53
2022/05/08 01:28:24;;;;;;;1.55;1.23;;;;;;;;;;5055146;28;20605;-55
2022/05/08 01:30:51;;;;;;;5.15;1.33;;;;;;;;;;5057023;28;20024;-53
2022/05/08 01:33:18;;;;;;;3.80;1.40;;;;;;;;;;5060042;28;20081;-52
2022/05/08 01:35:44;;;;;;;1.30;1.10;;;;;;;;;;5058327;28;20104;-52
2022/05/08 01:38:11;;;;;;;1.30;1.00;;;;;;;;;;5055452;28;20104;-53
2022/05/08 01:40:37;;;;;;;1.52;1.15;;;;;;;;;;5053897;28;20025;-51
2022/05/08 01:43:03;;;;;;;1.88;1.40;;;;;;;;;;5062409;28;20188;-52
2022/05/08 01:45:30;;;;;;;2.30;1.40;;;;;;;;;;5048854;28;20122;-53
2022/05/08 01:48:30;;;;;;;2.47;1.50;;;;;;;;;;5065394;28;20103;-52
2022/05/08 01:50:52;;;;;;;2.80;1.40;;;;;;;;;;5063078;28;20476;-54
2022/05/08 01:53:19;;;;;;;1.77;1.23;;;;;;;;;;5057714;28;20529;-51
2022/05/08 01:55:47;;;;;;;3.30;1.35;;;;;;;;;;5059099;28;20047;-54
2022/05/08 01:58:13;;;;;;;2.97;1.20;;;;;;;;;;5063178;28;20031;-54
2022/05/08 02:00:39;;;;;;;1.92;1.25;;;;;;;;;;5057121;28;20036;-54
2022/05/08 02:03:05;;;;;;;2.47;1.30;;;;;;;;;;5053036;28;20028;-54
2022/05/08 02:05:32;;;;;;;1.98;1.30;;;;;;;;;;5064848;28;20438;-53
2022/05/08 02:08:01;;;;;;;2.75;1.30;;;;;;;;;;5062135;28;20055;-51
2022/05/08 02:10:27;;;;;;;2.65;1.58;;;;;;;;;;5055223;28;20099;-51
2022/05/08 02:12:53;;;;;;;5.72;1.50;;;;;;;;;;5053013;28;20029;-52
2022/05/08 02:15:19;;;;;;;1.50;1.17;;;;;;;;;;5061209;28;20379;-52
2022/05/08 02:17:45;;;;;;;2.35;1.50;;;;;;;;;;5069492;28;20262;-51
2022/05/08 02:20:11;;;;;;;1.58;1.05;;;;;;;;;;5073311;28;20521;-54
2022/05/08 02:22:37;;;;;;;3.28;1.20;;;;;;;;;;5063711;28;20107;-52
2022/05/08 02:25:04;;;;;;;1.75;1.25;;;;;;;;;;5055543;28;20124;-54
2022/05/08 02:27:37;;;;;;;2.55;1.30;;;;;;;;;;5050417;28;20036;-52
2022/05/08 02:30:04;;;;;;;1.80;1.20;;;;;;;;;;5051989;28;20826;-52
2022/05/08 02:32:30;;;;;;;2.67;1.45;;;;;;;;;;5063230;28;20033;-52
2022/05/08 02:34:56;;;;;;;4.63;1.50;;;;;;;;;;5068809;28;20514;-51
2022/05/08 02:37:22;;;;;;;1.35;1.10;;;;;;;;;;5052387;28;20469;-54
2022/05/08 02:39:48;;;;;;;2.20;1.33;;;;;;;;;;5059057;28;20433;-53
2022/05/08 02:42:14;;;;;;;2.22;1.17;;;;;;;;;;5057198;28;20387;-52
2022/05/08 02:44:40;;;;;;;2.80;1.20;;;;;;;;;;5059177;28;20040;-51
2022/05/08 02:47:06;;;;;;;2.10;1.27;;;;;;;;;;5058792;28;20499;-53
2022/05/08 02:49:32;;;;;;;2.95;1.10;;;;;;;;;;5065638;28;20029;-52
2022/05/08 02:51:58;;;;;;;1.40;1.20;;;;;;;;;;5056984;28;20376;-50
2022/05/08 02:54:24;;;;;;;2.53;1.20;;;;;;;;;;5059537;28;20025;-52
2022/05/08 02:59:35;;;;;;;1.48;1.17;;;;;;;;;;5060374;28;20085;-51
2022/05/08 03:02:01;;;;;;;2.17;1.08;;;;;;;;;;5065912;28;20032;-52
2022/05/08 03:04:27;;;;;;;7.97;1.60;;;;;;;;;;5058905;28;20044;-52
2022/05/08 03:06:53;;;;;;;1.75;1.17;;;;;;;;;;5068430;28;20411;-52
2022/05/08 03:09:19;;;;;;;6.95;1.50;;;;;;;;;;5066572;28;20033;-53
2022/05/08 03:11:45;;;;;;;1.83;1.38;;;;;;;;;;5061918;28;20020;-51
2022/05/08 03:14:11;;;;;;;1.75;1.38;;;;;;;;;;5058952;28;20021;-52
2022/05/08 03:16:37;;;;;;;2.33;1.42;;;;;;;;;;5063517;28;20021;-54
2022/05/08 03:19:04;;;;;;;2.38;1.67;;;;;;;;;;5071510;28;20052;-51
2022/05/08 03:21:30;;;;;;;1.73;1.23;;;;;;;;;;5070564;28;20037;-54
2022/05/08 03:23:56;;;;;;;4.18;2.15;;;;;;;;;;5063799;28;20423;-51
2022/05/08 03:26:24;;;;;;;2.47;1.42;;;;;;;;;;5062661;28;20024;-52
2022/05/08 03:28:50;;;;;;;2.33;1.45;;;;;;;;;;5060919;28;20013;-52
2022/05/08 03:31:16;;;;;;;2.05;1.40;;;;;;;;;;5075737;28;20032;-52
2022/05/08 03:33:42;;;;;;;1.83;1.70;;;;;;;;;;5062905;28;20032;-52
2022/05/08 03:36:10;;;;;;;2.08;1.60;;;;;;;;;;5058134;28;20115;-51
2022/05/08 03:38:40;;;;;;;3.45;2.10;;;;;;;;;;5065452;28;20122;-53
2022/05/08 03:41:07;;;;;;;2.50;1.83;;;;;;;;;;5057041;28;20063;-51
2022/05/08 03:43:34;;;;;;;2.95;1.80;;;;;;;;;;5038754;28;20115;-51
2022/05/08 03:46:00;;;;;;;2.70;1.92;;;;;;;;;;5055382;28;20029;-55
2022/05/08 03:48:26;;;;;;;2.83;2.00;;;;;;;;;;5066767;28;20024;-51
2022/05/08 03:50:52;;;;;;;2.72;1.95;;;;;;;;;;5068792;28;20524;-51
2022/05/08 03:53:18;;;;;;;2.92;2.15;;;;;;;;;;5066970;28;20024;-51
2022/05/08 03:55:44;;;;;;;4.45;1.90;;;;;;;;;;5065477;28;20082;-54
2022/05/08 03:58:10;;;;;;;4.10;2.20;;;;;;;;;;5068591;28;20063;-51
2022/05/08 04:00:36;;;;;;;3.60;2.08;;;;;;;;;;5067589;28;20461;-51
2022/05/08 04:03:02;;;;;;;4.45;2.05;;;;;;;;;;5061979;28;20108;-52
2022/05/08 04:05:29;;;;;;;3.70;2.35;;;;;;;;;;5061157;28;20136;-52
2022/05/08 04:07:55;;;;;;;3.80;2.08;;;;;;;;;;5065612;28;20028;-51
2022/05/08 04:10:21;;;;;;;6.78;2.40;;;;;;;;;;5061151;28;20021;-51
2022/05/08 04:12:47;;;;;;;3.88;2.40;;;;;;;;;;5069149;28;20483;-52
2022/05/08 04:17:58;;;;;;;5.22;2.47;;;;;;;;;;5058999;28;20044;-52
2022/05/08 04:20:24;;;;;;;3.67;2.28;;;;;;;;;;5066322;28;20044;-52
2022/05/08 04:25:35;;;;;;;3.35;2.20;;;;;;;;;;5061666;28;20048;-51
2022/05/08 04:28:01;;;;;;;4.00;2.20;;;;;;;;;;5063594;28;20017;-52
2022/05/08 04:30:27;;;;;;;7.03;2.47;;;;;;;;;;5061149;28;20025;-50
2022/05/08 04:32:53;;;;;;;6.05;2.05;;;;;;;;;;5060106;28;20392;-50
2022/05/08 04:35:19;;;;;;;8.63;2.42;;;;;;;;;;5051876;28;20032;-51
2022/05/08 04:37:45;;;;;;;3.35;2.20;;;;;;;;;;5067509;28;20037;-50
2022/05/08 04:40:12;;;;;;;8.55;2.38;;;;;;;;;;5059910;28;20040;-50
2022/05/08 04:42:37;;;;;;;5.53;2.10;;;;;;;;;;5067404;28;20056;-51
2022/05/08 04:45:04;;;;;;;7.10;2.10;;;;;;;;;;5062811;28;20060;-51
2022/05/08 04:47:30;;;;;;;5.57;2.45;;;;;;;;;;5062115;28;20025;-51
2022/05/08 04:49:56;;;;;;;3.55;2.15;;;;;;;;;;5057698;28;20029;-51
2022/05/08 04:52:22;;;;;;;4.22;2.50;;;;;;;;;;5059166;28;20028;-52
2022/05/08 04:54:48;;;;;;;4.47;2.58;;;;;;;;;;5070212;28;20067;-53
2022/05/08 04:57:14;;;;;;;6.75;2.35;;;;;;;;;;5052752;28;20033;-51
2022/05/08 04:59:40;;;;;;;5.55;2.20;;;;;;;;;;5054075;28;20480;-52
2022/05/08 05:02:08;;;;;;;4.00;1.85;;;;;;;;;;5057600;28;20653;-52
2022/05/08 05:04:34;;;;;;;4.03;1.83;;;;;;;;;;5055579;28;20108;-54
2022/05/08 05:07:00;;;;;;;6.15;1.80;;;;;;;;;;5057930;28;20060;-54
2022/05/08 05:09:26;;;;;;;6.43;2.55;;;;;;;;;;5054253;28;20496;-52
2022/05/08 05:11:52;;;;;;;5.60;2.42;;;;;;;;;;5056577;28;20025;-53
2022/05/08 05:14:18;;;;;;;4.32;2.35;;;;;;;;;;5067387;28;20032;-51
2022/05/08 05:16:44;;;;;;;4.95;1.88;;;;;;;;;;5053921;28;20055;-51
2022/05/08 05:19:10;;;;;;;9.77;2.43;;;;;;;;;;5025230;28;973302;-52
2022/05/08 05:21:36;;;;;;;6.10;1.77;;;;;;;;;;5056942;28;20124;-51
2022/05/08 05:24:02;;;;;;;7.63;2.72;;;;;;;;;;5055998;28;20029;-51
2022/05/08 05:26:28;;;;;;;11.27;2.10;;;;;;;;;;5064491;28;20037;-52
2022/05/08 05:28:54;;;;;;;7.60;1.90;;;;;;;;;;5052218;28;20103;-51
2022/05/08 05:31:20;;;;;;;8.45;2.45;;;;;;;;;;5064543;28;20450;-52
2022/05/08 05:33:46;;;;;;;7.72;2.60;;;;;;;;;;5053894;28;20055;-52
2022/05/08 05:36:12;;;;;;;7.15;1.85;;;;;;;;;;5053123;28;20086;-51
2022/05/08 05:38:39;;;;;;;5.60;1.90;;;;;;;;;;5054843;28;20043;-52
2022/05/08 05:41:05;;;;;;;4.40;2.10;;;;;;;;;;5065088;28;20025;-53
2022/05/08 05:43:31;;;;;;;4.32;1.60;;;;;;;;;;5056586;28;20041;-52
2022/05/08 05:48:41;;;;;;;3.03;1.42;;;;;;;;;;5055128;28;20503;-53
2022/05/08 05:51:07;;;;;;;7.13;2.45;;;;;;;;;;5056278;28;20021;-51
2022/05/08 05:53:34;;;;;;;4.20;1.52;;;;;;;;;;5060569;28;21000;-51
2022/05/08 05:56:00;;;;;;;5.90;1.92;;;;;;;;;;5062049;28;20067;-51
2022/05/08 05:58:26;;;;;;;6.50;2.15;;;;;;;;;;5055255;28;20028;-51
2022/05/08 06:00:51;;;;;;;9.13;2.03;;;;;;;;;;5064015;28;20060;-53
2022/05/08 06:03:17;;;;;;;12.52;3.05;;;;;;;;;;5058552;28;20463;-53
2022/05/08 06:05:44;;;;;;;8.85;2.08;;;;;;;;;;5062532;28;20032;-54
2022/05/08 06:08:10;;;;;;;8.43;1.55;;;;;;;;;;5057344;28;20362;-51
2022/05/08 06:10:36;;;;;;;9.18;2.30;;;;;;;;;;5066556;28;20024;-54
2022/05/08 06:13:02;;;;;;;8.32;2.03;;;;;;;;;;5059568;28;20025;-50
2022/05/08 06:15:28;;;;;;;5.38;1.80;;;;;;;;;;5042866;28;20043;-52
2022/05/08 06:17:55;;;;;;;5.28;1.95;;;;;;;;;;5054123;28;20530;-51
2022/05/08 06:20:21;;;;;;;10.32;2.60;;;;;;;;;;5058844;28;20056;-51
2022/05/08 06:22:47;;;;;;;6.10;1.98;;;;;;;;;;5056753;28;20017;-51
2022/05/08 06:25:13;;;;;;;9.10;1.63;;;;;;;;;;5067765;28;20091;-52
2022/05/08 06:27:39;;;;;;;7.72;2.50;;;;;;;;;;5051474;28;20135;-50
2022/05/08 06:30:08;;;;;;;9.82;2.25;;;;;;;;;;5053960;28;20159;-55
2022/05/08 06:32:37;;;;;;;6.47;2.17;;;;;;;;;;5054108;28;20440;-51
2022/05/08 06:35:03;;;;;;;8.02;1.73;;;;;;;;;;5046377;28;20094;-53
2022/05/08 06:37:29;;;;;;;9.88;2.05;;;;;;;;;;5055990;28;20029;-53
2022/05/08 06:39:55;;;;;;;6.18;1.90;;;;;;;;;;5053090;28;20036;-52
2022/05/08 06:42:21;;;;;;;7.28;1.70;;;;;;;;;;5058992;28;20028;-52
2022/05/08 06:44:47;;;;;;;10.07;1.73;;;;;;;;;;5054518;28;20075;-52
2022/05/08 06:47:13;;;;;;;7.00;1.70;;;;;;;;;;5059944;28;20366;-51
2022/05/08 06:49:39;;;;;;;10.68;2.50;;;;;;;;;;5052051;28;20032;-51
2022/05/08 06:52:05;;;;;;;3.53;1.70;;;;;;;;;;5062307;28;20021;-54
2022/05/08 06:54:31;;;;;;;9.27;1.90;;;;;;;;;;5052592;28;20044;-54
2022/05/08 06:56:59;;;;;;;11.52;2.67;;;;;;;;;;5065576;28;20127;-52
2022/05/08 07:02:11;;;;;;;8.82;1.95;;;;;;;;;;5060099;28;20074;-53
2022/05/08 07:04:37;;;;;;;4.80;1.83;;;;;;;;;;5054434;28;20080;-53
2022/05/08 07:07:03;;;;;;;7.88;1.88;;;;;;;;;;5063299;28;20021;-54
2022/05/08 07:09:29;;;;;;;10.75;2.20;;;;;;;;;;5056981;28;20033;-52
2022/05/08 07:11:55;;;;;;;8.55;2.33;;;;;;;;;;5064846;28;20036;-51
2022/05/08 07:14:21;;;;;;;11.48;2.40;;;;;;;;;;5054687;28;20051;-51
2022/05/08 07:16:47;;;;;;;3.13;1.25;;;;;;;;;;5066296;28;20524;-52
2022/05/08 07:19:13;;;;;;;10.65;2.20;;;;;;;;;;5055510;28;20060;-52
2022/05/08 07:21:39;;;;;;;13.60;2.50;;;;;;;;;;5056583;28;20035;-51
2022/05/08 07:24:06;;;;;;;7.70;1.70;;;;;;;;;;5061416;28;20036;-51
2022/05/08 07:26:32;;;;;;;10.45;2.25;;;;;;;;;;5062157;28;20484;-52
2022/05/08 07:28:58;;;;;;;6.82;1.73;;;;;;;;;;5062213;28;20035;-53
2022/05/08 07:31:27;;;;;;;8.38;1.90;;;;;;;;;;5061441;28;20021;-54
2022/05/08 07:36:12;;;;;;;6.10;1.80;;;;;;;;;;5060955;28;20438;-53
2022/05/08 07:36:39;;;;;;;8.63;1.52;;;;;;;;;;5057486;28;20037;-53
2022/05/08 07:39:05;;;;;;;6.07;1.75;;;;;;;;;;5056118;28;20060;-52
2022/05/08 07:41:31;;;;;;;6.75;2.10;;;;;;;;;;5067004;28;20159;-52
2022/05/08 07:43:57;;;;;;;11.57;2.58;;;;;;;;;;5065125;28;20413;-52
2022/05/08 07:46:25;;;;;;;9.98;1.98;;;;;;;;;;5065585;28;20035;-53
2022/05/08 07:48:51;;;;;;;6.80;1.75;;;;;;;;;;5054505;28;20025;-52
2022/05/08 07:51:17;;;;;;;11.07;1.60;;;;;;;;;;5061048;28;20032;-51
2022/05/08 07:53:43;;;;;;;8.38;2.55;;;;;;;;;;5065595;28;20070;-54
2022/05/08 07:56:09;;;;;;;8.70;2.17;;;;;;;;;;5064340;28;20029;-52
2022/05/08 07:58:35;;;;;;;6.47;1.88;;;;;;;;;;5056631;28;20060;-55
2022/05/08 08:01:02;;;;;;;8.35;1.90;;;;;;;;;;5054554;28;20029;-52
2022/05/08 08:03:29;;;;;;;9.35;1.88;;;;;;;;;;5054702;28;20476;-53
2022/05/08 08:05:56;;;;;;;5.60;1.73;;;;;;;;;;5055706;28;20369;-52
2022/05/08 08:08:23;;;;;;;5.10;1.60;;;;;;;;;;5058605;28;20473;-54
2022/05/08 08:10:51;;;;;;;6.38;1.98;;;;;;;;;;5066228;28;20104;-53
2022/05/08 08:13:17;;;;;;;8.60;1.60;;;;;;;;;;5054445;28;20472;-51
2022/05/08 08:15:45;;;;;;;13.40;1.90;;;;;;;;;;5058656;28;20079;-52
2022/05/08 08:18:11;;;;;;;6.22;2.10;;;;;;;;;;5059061;28;20019;-51
2022/05/08 08:20:37;;;;;;;9.95;1.92;;;;;;;;;;5057595;28;20414;-54
2022/05/08 08:23:03;;;;;;;7.72;1.85;;;;;;;;;;5059406;28;20040;-51
2022/05/08 08:25:29;;;;;;;7.15;1.55;;;;;;;;;;5064256;28;20024;-52
2022/05/08 08:27:56;;;;;;;8.52;2.13;;;;;;;;;;5058475;28;20486;-54
2022/05/08 08:30:22;;;;;;;8.07;2.03;;;;;;;;;;5068302;28;20029;-54
2022/05/08 08:32:48;;;;;;;5.57;1.95;;;;;;;;;;5060019;28;20100;-51
2022/05/08 08:35:14;;;;;;;7.30;2.22;;;;;;;;;;5072729;28;20035;-53
2022/05/08 08:37:40;;;;;;;10.07;2.15;;;;;;;;;;5065882;28;20033;-51
2022/05/08 08:40:06;;;;;;;10.55;2.05;;;;;;;;;;5054704;28;20107;-54
2022/05/08 08:42:33;;;;;;;5.78;1.90;;;;;;;;;;5061074;28;20029;-50
2022/05/08 08:47:52;;;;;;;6.85;2.20;;;;;;;;;;5064369;28;20047;-54
2022/05/08 08:50:18;;;;;;;;;;;;;;;;;;5066144;28;20384;-52
2022/05/08 08:52:48;;;;;;;9.77;2.00;;;;;;;;;;5069632;28;19919;-52
2022/05/08 08:55:15;;;;;;;7.68;1.88;;;;;;;;;;5069088;28;20044;-53
2022/05/08 08:57:41;;;;;;;6.05;1.38;;;;;;;;;;5062754;28;20503;-55
2022/05/08 09:00:08;;;;;;;7.82;1.88;;;;;;;;;;5070943;28;20476;-52
2022/05/08 09:02:34;;;;;;;10.40;1.80;;;;;;;;;;5068452;28;20020;-52
2022/05/08 09:05:04;;;;;;;8.80;2.38;;;;;;;;;;5061765;28;20058;-52
2022/05/08 09:07:45;;;;;;;6.85;1.98;;;;;;;;;;5059153;28;20078;-51
2022/05/08 09:10:12;;;;;;;7.40;1.75;;;;;;;;;;5043653;28;20078;-52
2022/05/08 09:12:39;;;;;;;5.57;1.40;;;;;;;;;;5061736;28;20039;-54
2022/05/08 09:15:19;;;;;;;6.40;1.48;;;;;;;;;;5071262;28;20078;-51
2022/05/08 09:17:45;;;;;;;6.30;1.95;;;;;;;;;;5055223;28;20025;-52
2022/05/08 09:20:26;;;;;;;6.70;1.50;;;;;;;;;;5065791;28;20600;-54
2022/05/08 09:22:59;;;;;;;5.78;1.73;;;;;;;;;;5063061;28;20024;-51
2022/05/08 09:25:25;;;;;;;10.10;2.08;;;;;;;;;;5067366;28;20052;-52
2022/05/08 09:28:00;;;;;;;6.93;2.00;;;;;;;;;;5069981;28;20728;-52
2022/05/08 09:30:26;;;;;;;7.78;1.70;;;;;;;;;;5070042;28;20024;-51
2022/05/08 09:32:52;;;;;;;7.30;1.77;;;;;;;;;;5070658;28;20036;-55
2022/05/08 09:35:18;;;;;;;6.15;1.50;;;;;;;;;;5071530;28;20025;-53
2022/05/08 09:37:54;;;;;;;3.75;1.35;;;;;;;;;;5070875;28;20111;-54
2022/05/08 09:40:21;;;;;;;7.32;1.40;;;;;;;;;;5070346;28;20040;-52
2022/05/08 09:42:47;;;;;;;4.47;1.10;;;;;;;;;;5062966;28;20064;-52
2022/05/08 09:45:13;;;;;;;4.97;1.33;;;;;;;;;;5066253;28;20028;-52
2022/05/08 09:47:39;;;;;;;4.88;1.20;;;;;;;;;;5070654;28;20103;-55
2022/05/08 09:50:07;;;;;;;4.45;1.42;;;;;;;;;;5070648;28;20547;-54
2022/05/08 09:52:33;;;;;;;5.25;1.40;;;;;;;;;;5068910;28;20082;-52
2022/05/08 09:54:59;;;;;;;7.38;1.70;;;;;;;;;;5062568;28;20036;-54
2022/05/08 09:57:25;;;;;;;4.10;1.35;;;;;;;;;;5067307;28;20033;-53
2022/05/08 09:59:51;;;;;;;5.05;1.75;;;;;;;;;;5070685;28;20039;-52
2022/05/08 10:02:17;;;;;;;5.78;1.50;;;;;;;;;;5067849;28;20110;-52
2022/05/08 10:04:43;;;;;;;7.43;1.80;;;;;;;;;;5069299;28;20032;-52
2022/05/08 10:07:12;;;;;;;5.78;1.23;;;;;;;;;;5055000;28;20036;-54
2022/05/08 10:15:17;;;;;;;5.18;1.23;;;;;;;;;;5054874;28;20591;-52
2022/05/08 10:17:43;;;;;;;7.55;1.55;;;;;;;;;;5051334;28;20028;-50
2022/05/08 10:20:09;;;;;;;7.13;1.77;;;;;;;;;;5057210;28;20040;-53
2022/05/08 10:22:48;;;;;;;7.10;1.40;;;;;;;;;;5066475;28;20020;-53
2022/05/08 10:25:17;;;;;;;6.30;1.70;;;;;;;;;;5067870;28;20495;-53
2022/05/08 10:28:03;;;;;;;5.72;1.10;;;;;;;;;;5059629;28;20021;-53
2022/05/08 10:30:30;;;;;;;3.63;1.48;;;;;;;;;;5057229;28;20036;-52
2022/05/08 10:32:56;;;;;;;11.45;2.00;;;;;;;;;;5064523;28;20021;-54
2022/05/08 10:35:24;;;;;;;10.43;1.92;;;;;;;;;;5051754;28;20115;-52
2022/05/08 10:37:50;;;;;;;4.30;1.20;;;;;;;;;;5067204;28;20070;-53
2022/05/08 10:40:22;;;;;;;5.10;1.20;;;;;;;;;;5067199;28;20029;-53
2022/05/08 10:42:48;;;;;;;2.92;1.08;;;;;;;;;;5066644;28;20031;-54
2022/05/08 10:45:37;;;;;;;5.22;1.33;;;;;;;;;;5066979;28;20029;-55
2022/05/08 10:48:12;;;;;;;5.38;1.05;;;;;;;;;;5061323;28;20488;-53
2022/05/08 10:50:41;;;;;;;5.07;1.15;;;;;;;;;;5065172;28;20131;-53
2022/05/08 10:53:07;;;;;;;3.17;1.40;;;;;;;;;;5063301;28;20069;-51
2022/05/08 10:55:33;;;;;;;3.22;1.25;;;;;;;;;;5066121;28;20054;-54
2022/05/08 10:57:59;;;;;;;7.25;1.55;;;;;;;;;;5053224;28;20401;-55
2022/05/08 11:00:29;;;;;;;5.75;1.05;;;;;;;;;;5054850;28;20032;-54
2022/05/08 11:02:56;;;;;;;2.67;1.00;;;;;;;;;;5065667;28;20025;-55
2022/05/08 11:05:24;;;;;;;4.75;1.23;;;;;;;;;;5068890;28;20041;-55
2022/05/08 11:07:54;;;;;;;6.75;1.40;;;;;;;;;;5065791;28;20036;-54
2022/05/08 11:10:24;;;;;;;2.15;0.85;;;;;;;;;;5053732;28;20025;-53
2022/05/08 11:12:59;;;;;;;4.95;1.40;;;;;;;;;;5065396;28;20033;-54
2022/05/08 11:15:25;;;;;;;5.03;1.10;;;;;;;;;;5062207;28;20032;-55
2022/05/08 11:18:04;;;;;;;3.88;0.98;;;;;;;;;;5064105;28;20032;-55
2022/05/08 11:20:36;;;;;;;10.48;1.52;;;;;;;;;;5073932;28;20127;-55
2022/05/08 11:23:02;;;;;;;3.55;0.60;;;;;;;;;;5074203;28;20024;-55
2022/05/08 11:25:28;;;;;;;3.20;0.82;;;;;;;;;;5066415;28;20028;-55
2022/05/08 11:27:55;;;;;;;4.72;0.90;;;;;;;;;;5069100;28;20024;-53
2022/05/08 11:30:36;;;;;;;6.05;1.35;;;;;;;;;;5070604;28;20027;-56
2022/05/08 11:36:04;;;;;;;4.40;0.90;;;;;;;;;;5074607;28;20082;-56
2022/05/08 11:38:43;;;;;;;3.20;0.82;;;;;;;;;;5074067;28;20025;-55
2022/05/08 11:41:10;;;;;;;3.60;1.08;;;;;;;;;;5073511;28;20036;-56
2022/05/08 11:43:40;;;;;;;3.20;0.80;;;;;;;;;;5070574;28;20032;-56
2022/05/08 11:46:10;;;;;;;2.85;0.90;;;;;;;;;;5072680;28;20029;-55
2022/05/08 11:48:42;;;;;;;3.42;0.77;;;;;;;;;;5073303;28;20376;-54
2022/05/08 11:51:12;;;;;;;9.88;1.15;;;;;;;;;;5064619;28;20075;-55
2022/05/08 11:53:41;;;;;;;4.05;0.75;;;;;;;;;;5064234;28;20025;-54
2022/05/08 11:56:26;;;;;;;3.95;1.17;;;;;;;;;;5073722;28;20029;-55
2022/05/08 11:58:52;;;;;;;5.40;1.23;;;;;;;;;;5073128;28;20476;-55
2022/05/08 12:01:25;;;;;;;3.88;0.80;;;;;;;;;;5069650;28;20068;-55
2022/05/08 12:03:51;;;;;;;3.30;1.33;;;;;;;;;;5066922;28;20452;-55
2022/05/08 12:06:17;;;;;;;2.78;0.60;;;;;;;;;;5073574;28;20476;-54
2022/05/08 12:08:43;;;;;;;4.63;0.90;;;;;;;;;;5072749;28;20028;-54
2022/05/08 12:11:33;;;;;;;2.83;0.75;;;;;;;;;;5064044;28;20573;-54
2022/05/08 12:14:02;;;;;;;2.42;0.75;;;;;;;;;;5070589;28;20040;-56
2022/05/08 12:16:29;;;;;;;4.97;0.88;;;;;;;;;;5057134;28;20031;-55
2022/05/08 12:19:15;;;;;;;4.20;1.00;;;;;;;;;;5056772;28;20068;-56
2022/05/08 12:21:43;;;;;;;4.10;0.98;;;;;;;;;;5055407;28;20032;-54
2022/05/08 12:24:12;;;;;;;4.30;0.85;;;;;;;;;;5072030;28;20028;-56
2022/05/08 12:26:38;;;;;;;2.00;0.73;;;;;;;;;;5063541;28;20036;-54
2022/05/08 12:29:23;;;;;;;4.90;1.17;;;;;;;;;;5072878;28;20020;-55
2022/05/08 12:31:50;;;;;;;3.60;0.80;;;;;;;;;;5054422;28;20028;-52
2022/05/08 12:34:17;;;;;;;2.47;0.77;;;;;;;;;;5058832;28;20024;-52
2022/05/08 12:36:43;;;;;;;1.98;0.57;;;;;;;;;;5053240;28;20032;-54
2022/05/08 12:39:09;;;;;;;2.00;0.57;;;;;;;;;;5061542;28;20045;-54
2022/05/08 12:41:36;;;;;;;1.35;0.55;;;;;;;;;;5067439;28;20021;-54
2022/05/08 12:44:02;;;;;;;2.33;0.75;;;;;;;;;;5065964;28;20025;-54
2022/05/08 12:46:28;;;;;;;5.40;0.70;;;;;;;;;;5072644;28;20032;-55
2022/05/08 12:49:00;;;;;;;2.67;0.70;;;;;;;;;;5057938;28;20374;-54
2022/05/08 12:51:26;;;;;;;4.45;0.68;;;;;;;;;;5065112;28;20544;-55
2022/05/08 12:53:52;;;;;;;4.63;0.80;;;;;;;;;;5063933;28;20040;-54
2022/05/08 12:56:19;;;;;;;1.85;0.70;;;;;;;;;;5063469;28;20484;-54
2022/05/08 13:01:29;;;;;;;2.97;0.60;;;;;;;;;;5056694;28;21848;-54
2022/05/08 13:03:55;;;;;;;3.90;1.02;;;;;;;;;;5059080;28;20116;-54
2022/05/08 13:06:21;;;;;;;2.20;0.80;;;;;;;;;;5057895;28;20025;-55
2022/05/08 13:08:47;;;;;;;4.20;0.77;;;;;;;;;;5046363;28;20021;-54
2022/05/08 13:11:13;;;;;;;1.13;0.30;;;;;;;;;;5060945;28;20032;-54
2022/05/08 13:13:39;;;;;;;6.43;0.63;;;;;;;;;;5052125;28;20112;-55
2022/05/08 13:16:11;;;;;;;1.15;0.38;;;;;;;;;;5068626;28;20106;-55
2022/05/08 13:18:37;;;;;;;1.83;0.60;;;;;;;;;;5063538;28;20064;-56
2022/05/08 13:21:03;;;;;;;3.75;0.70;;;;;;;;;;5070147;28;20074;-55
2022/05/08 13:23:29;;;;;;;3.67;0.68;;;;;;;;;;5069072;28;20029;-54
2022/05/08 13:25:55;;;;;;;1.90;0.47;;;;;;;;;;5063015;28;20029;-54
2022/05/08 13:28:21;;;;;;;2.00;0.68;;;;;;;;;;5065601;28;20033;-54
2022/05/08 13:30:47;;;;;;;1.98;0.60;;;;;;;;;;5057515;28;20033;-55
2022/05/08 13:33:13;;;;;;;2.80;0.90;;;;;;;;;;5060560;28;20027;-54
2022/05/08 13:35:39;;;;;;;1.90;0.57;;;;;;;;;;5059510;28;20028;-54
2022/05/08 13:38:05;;;;;;;4.60;1.08;;;;;;;;;;5070874;28;20032;-55
2022/05/08 13:40:31;;;;;;;2.70;0.80;;;;;;;;;;5077694;28;20029;-54
2022/05/08 13:42:57;;;;;;;1.27;0.50;;;;;;;;;;5071196;28;20047;-55
2022/05/08 13:45:23;;;;;;;3.70;0.60;;;;;;;;;;5065391;28;20507;-56
2022/05/08 13:47:50;;;;;;;1.38;0.50;;;;;;;;;;5070698;28;20036;-55
2022/05/08 13:50:16;;;;;;;5.15;0.38;;;;;;;;;;5068926;28;20031;-56
2022/05/08 13:52:43;;;;;;;3.05;0.40;;;;;;;;;;5070089;28;20970;-54
2022/05/08 13:55:15;;;;;;;1.27;0.43;;;;;;;;;;5070425;28;20025;-55
2022/05/08 13:57:42;;;;;;;1.90;0.43;;;;;;;;;;5071050;28;20029;-55
2022/05/08 14:00:14;;;;;;;3.33;0.60;;;;;;;;;;5064459;28;20058;-55
2022/05/08 14:02:40;;;;;;;1.27;0.50;;;;;;;;;;5054960;28;20025;-53
2022/05/08 14:05:06;;;;;;;3.28;0.75;;;;;;;;;;5065293;28;20036;-55
2022/05/08 14:07:32;;;;;;;2.22;0.60;;;;;;;;;;5067139;28;20538;-55
2022/05/08 14:09:58;;;;;;;2.25;0.30;;;;;;;;;;5051646;28;20116;-55
2022/05/08 14:12:24;;;;;;;2.15;0.77;;;;;;;;;;5064267;28;20032;-54
2022/05/08 14:14:50;;;;;;;1.25;0.20;;;;;;;;;;5062062;28;20028;-55
2022/05/08 14:17:15;;;;;;;2.47;0.80;;;;;;;;;;5068744;28;20044;-55
2022/05/08 14:19:42;;;;;;;0.95;0.50;;;;;;;;;;5067167;28;20412;-54
2022/05/08 14:22:08;;;;;;;4.18;0.63;;;;;;;;;;5069807;28;20044;-55
2022/05/08 14:24:34;;;;;;;3.88;0.73;;;;;;;;;;5070600;28;20530;-55
2022/05/08 14:27:01;;;;;;;2.38;0.50;;;;;;;;;;5065097;28;20021;-55
2022/05/08 14:29:27;;;;;;;2.88;0.35;;;;;;;;;;5061721;28;20033;-54
2022/05/08 14:37:22;;;;;;;2.80;0.55;;;;;;;;;;5068761;28;20039;-54
2022/05/08 14:39:48;;;;;;;3.28;0.65;;;;;;;;;;5054047;28;20401;-54
2022/05/08 14:42:14;;;;;;;2.42;0.50;;;;;;;;;;5053014;28;20049;-55
2022/05/08 14:44:40;;;;;;;3.63;0.90;;;;;;;;;;5058439;28;20032;-55
2022/05/08 14:47:06;;;;;;;2.15;0.65;;;;;;;;;;5061726;28;20033;-54
2022/05/08 14:49:32;;;;;;;2.95;0.60;;;;;;;;;;5070115;28;20107;-53
2022/05/08 14:51:58;;;;;;;1.00;0.63;;;;;;;;;;5067825;28;20035;-55
2022/05/08 14:54:24;;;;;;;1.27;0.55;;;;;;;;;;5062742;28;20479;-55
2022/05/08 14:56:50;;;;;;;2.05;0.80;;;;;;;;;;5065517;28;20025;-54
2022/05/08 14:59:16;;;;;;;2.08;0.75;;;;;;;;;;5060379;28;20071;-55
2022/05/08 15:01:42;;;;;;;2.85;0.63;;;;;;;;;;5068977;28;20473;-54
2022/05/08 15:04:08;;;;;;;4.07;0.77;;;;;;;;;;5072299;28;20021;-54
2022/05/08 15:06:34;;;;;;;2.92;0.60;;;;;;;;;;5055889;28;20190;-54
2022/05/08 15:09:01;;;;;;;1.65;0.60;;;;;;;;;;5059236;28;20066;-53
2022/05/08 15:11:27;;;;;;;2.30;0.70;;;;;;;;;;5063750;28;20500;-51
2022/05/08 15:13:53;;;;;;;2.28;0.75;;;;;;;;;;5059028;28;20131;-54
2022/05/08 15:16:19;;;;;;;5.10;1.10;;;;;;;;;;5041706;28;20056;-53